Time;durP1;ratioP1;P1;durP2;ratioP2;P2;SDS_P1;SDS_P2;PMS_P1;PMS_P2;Temp;Humidity;BMP_temperature;BMP_pressure;BME280_temperature;BME280_humidity;BME280_pressure;Samples;Min_cycle;Max_cycle;Signal;HPM_P1;HPM_P2
2021/11/06 00:02:21;;;;;;;11.90;11.60;;;18.10;99.90;;;;;;4954098;29;20480;-52
2021/11/06 00:04:48;;;;;;;12.10;11.80;;;18.10;99.90;;;;;;4954248;29;20448;-52
2021/11/06 00:07:15;;;;;;;12.07;11.77;;;18.10;99.90;;;;;;4954064;29;20457;-55
2021/11/06 00:09:42;;;;;;;12.10;11.80;;;18.10;99.90;;;;;;4953747;28;20493;-52
2021/11/06 00:12:09;;;;;;;12.10;11.80;;;18.10;99.90;;;;;;4953998;29;20969;-56
2021/11/06 00:14:36;;;;;;;12.20;11.90;;;18.10;99.90;;;;;;4953988;28;20448;-57
2021/11/06 00:17:04;;;;;;;12.17;11.83;;;18.00;99.90;;;;;;4953973;29;20440;-56
2021/11/06 00:19:31;;;;;;;12.40;12.07;;;18.10;99.90;;;;;;4953700;28;20468;-57
2021/11/06 00:21:58;;;;;;;11.97;11.67;;;18.10;99.90;;;;;;4953807;29;20848;-57
2021/11/06 00:24:24;;;;;;;12.40;12.10;;;18.00;99.90;;;;;;4953781;28;20453;-50
2021/11/06 00:26:51;;;;;;;12.50;12.10;;;18.00;99.90;;;;;;4953755;29;20452;-51
2021/11/06 00:29:18;;;;;;;12.30;12.00;;;18.00;99.90;;;;;;4953465;28;20840;-53
2021/11/06 00:31:46;;;;;;;11.73;11.43;;;18.00;99.90;;;;;;4953612;29;20457;-50
2021/11/06 00:34:14;;;;;;;11.97;11.67;;;18.10;99.90;;;;;;4953734;29;20484;-53
2021/11/06 00:36:40;;;;;;;12.23;11.93;;;18.00;99.90;;;;;;4953618;29;20449;-53
2021/11/06 00:39:07;;;;;;;12.60;12.20;;;18.00;99.90;;;;;;4953446;28;20472;-51
2021/11/06 00:41:34;;;;;;;12.30;12.00;;;18.00;99.90;;;;;;4953566;29;20554;-54
2021/11/06 00:44:01;;;;;;;12.40;12.10;;;18.00;99.90;;;;;;4953566;29;20487;-55
2021/11/06 00:46:28;;;;;;;12.17;11.87;;;18.00;99.90;;;;;;4953601;29;20452;-54
2021/11/06 00:48:54;;;;;;;12.23;11.93;;;18.00;99.90;;;;;;4953277;28;20820;-54
2021/11/06 00:51:22;;;;;;;11.60;11.30;;;18.00;99.90;;;;;;4953466;29;20448;-54
2021/11/06 00:53:49;;;;;;;12.50;12.20;;;18.00;99.90;;;;;;4953466;29;20954;-57
2021/11/06 00:56:16;;;;;;;12.20;11.90;;;18.00;99.90;;;;;;4953401;29;20453;-51
2021/11/06 00:58:43;;;;;;;12.53;12.13;;;17.90;99.90;;;;;;4953263;28;20842;-53
2021/11/06 01:01:09;;;;;;;13.00;12.60;;;17.90;99.90;;;;;;4953375;29;20456;-51
2021/11/06 01:03:36;;;;;;;12.17;11.87;;;17.90;99.90;;;;;;4953349;29;20484;-50
2021/11/06 01:06:03;;;;;;;12.40;12.10;;;17.90;99.90;;;;;;4953412;29;20471;-51
2021/11/06 01:08:31;;;;;;;12.40;12.10;;;17.90;99.90;;;;;;4953434;28;20977;-51
2021/11/06 01:10:58;;;;;;;12.37;12.07;;;17.90;99.90;;;;;;4953257;29;20474;-55
2021/11/06 01:13:25;;;;;;;12.40;12.10;;;17.90;99.90;;;;;;4953333;29;20455;-49
2021/11/06 01:15:51;;;;;;;12.30;12.00;;;17.80;99.90;;;;;;4953276;29;20816;-57
2021/11/06 01:18:18;;;;;;;12.20;11.90;;;17.80;99.90;;;;;;4953166;28;20480;-53
2021/11/06 01:20:45;;;;;;;12.20;11.90;;;17.80;99.90;;;;;;4953085;29;20452;-53
2021/11/06 01:23:12;;;;;;;12.40;12.10;;;17.80;99.90;;;;;;4953129;28;20494;-55
2021/11/06 01:25:40;;;;;;;12.30;12.00;;;17.80;99.90;;;;;;4953095;29;20448;-56
2021/11/06 01:28:06;;;;;;;11.90;11.60;;;17.80;99.90;;;;;;4953065;28;20471;-52
2021/11/06 01:30:33;;;;;;;12.10;11.80;;;17.80;99.90;;;;;;4952915;29;20464;-54
2021/11/06 01:33:00;;;;;;;12.40;12.10;;;17.70;99.90;;;;;;4953159;29;20436;-54
2021/11/06 01:35:27;;;;;;;12.93;12.37;;;17.80;99.90;;;;;;4953129;28;20448;-55
2021/11/06 01:37:53;;;;;;;12.30;12.00;;;17.80;99.90;;;;;;4956104;28;20491;-51
2021/11/06 01:40:21;;;;;;;11.90;11.60;;;17.80;99.90;;;;;;4956520;29;20448;-51
2021/11/06 01:42:49;;;;;;;12.40;12.10;;;17.70;99.90;;;;;;4956704;28;20575;-52
2021/11/06 01:45:18;;;;;;;11.97;11.67;;;17.70;99.90;;;;;;4956620;29;20455;-52
2021/11/06 01:47:46;;;;;;;12.60;12.20;;;17.70;99.90;;;;;;4956499;28;20441;-53
2021/11/06 01:50:13;;;;;;;12.10;11.80;;;17.70;99.90;;;;;;4956368;29;20448;-50
2021/11/06 01:52:41;;;;;;;11.80;11.50;;;17.70;99.90;;;;;;4956519;28;20444;-51
2021/11/06 01:55:09;;;;;;;12.00;11.70;;;17.80;99.90;;;;;;4956542;29;20471;-57
2021/11/06 01:57:36;;;;;;;12.27;11.90;;;17.70;99.90;;;;;;4956497;28;20495;-53
2021/11/06 02:00:06;;;;;;;12.60;12.20;;;17.70;99.90;;;;;;4956138;29;20459;-55
2021/11/06 02:02:34;;;;;;;12.60;12.30;;;17.70;99.90;;;;;;4956454;28;20480;-56
2021/11/06 02:05:01;;;;;;;12.87;12.57;;;17.70;99.90;;;;;;4956228;29;20449;-55
2021/11/06 02:07:28;;;;;;;12.23;11.93;;;17.70;99.90;;;;;;4956213;29;20456;-51
2021/11/06 02:09:55;;;;;;;12.53;12.13;;;17.70;99.90;;;;;;4955102;29;20843;-49
2021/11/06 02:12:26;;;;;;;11.97;11.57;;;17.70;99.90;;;;;;4955413;29;20933;-55
2021/11/06 02:14:53;;;;;;;12.40;12.10;;;17.70;99.90;;;;;;4956063;28;20452;-54
2021/11/06 02:17:22;;;;;;;12.80;12.40;;;17.80;99.90;;;;;;4956051;29;20822;-55
2021/11/06 02:19:50;;;;;;;13.17;12.67;;;17.80;99.90;;;;;;4955502;28;20835;-57
2021/11/06 02:22:19;;;;;;;12.00;11.70;;;17.80;99.90;;;;;;4956074;28;20452;-51
2021/11/06 02:24:46;;;;;;;12.40;12.00;;;17.80;99.90;;;;;;4956033;28;20445;-52
2021/11/06 02:27:14;;;;;;;12.40;12.10;;;17.90;99.90;;;;;;4956055;28;20519;-50
2021/11/06 02:29:41;;;;;;;11.93;11.63;;;17.80;99.90;;;;;;4956266;28;20523;-53
2021/11/06 02:32:10;;;;;;;11.97;11.67;;;17.90;99.90;;;;;;4956126;28;20456;-57
2021/11/06 02:34:37;;;;;;;12.10;11.73;;;17.90;99.90;;;;;;4956231;29;20948;-55
2021/11/06 02:37:06;;;;;;;11.77;11.47;;;17.90;99.90;;;;;;4955839;29;20470;-55
2021/11/06 02:39:35;;;;;;;12.20;11.90;;;18.30;99.90;;;;;;4955151;28;20473;-54
2021/11/06 02:42:05;;;;;;;13.07;12.67;;;18.70;99.90;;;;;;4956156;28;20455;-58
2021/11/06 02:44:33;;;;;;;12.67;12.27;;;19.00;99.90;;;;;;4955828;28;20485;-57
2021/11/06 02:47:01;;;;;;;12.93;12.53;;;19.70;99.90;;;;;;4955685;28;20451;-49
2021/11/06 02:49:29;;;;;;;12.30;11.90;;;20.50;99.80;;;;;;4954286;28;20477;-50
2021/11/06 02:51:57;;;;;;;12.63;12.33;;;20.80;98.20;;;;;;4955562;28;20453;-49
2021/11/06 02:54:26;;;;;;;12.40;12.00;;;20.90;97.30;;;;;;4956016;28;20448;-49
2021/11/06 02:56:55;;;;;;;12.57;12.27;;;21.00;96.80;;;;;;4955807;28;20455;-47
2021/11/06 02:59:23;;;;;;;12.50;12.20;;;21.10;96.20;;;;;;4954697;28;20476;-48
2021/11/06 03:01:50;;;;;;;13.60;13.10;;;21.10;96.20;;;;;;4955167;28;20540;-48
2021/11/06 03:04:17;;;;;;;13.37;12.87;;;21.10;95.80;;;;;;4955260;29;20511;-49
2021/11/06 03:06:45;;;;;;;12.57;12.10;;;21.20;95.30;;;;;;4955188;29;20452;-49
2021/11/06 03:09:12;;;;;;;13.50;13.10;;;21.10;94.80;;;;;;4954776;28;20476;-47
2021/11/06 03:11:40;;;;;;;14.00;13.40;;;21.10;94.70;;;;;;4955140;28;20448;-47
2021/11/06 03:14:10;;;;;;;14.00;13.50;;;21.00;94.40;;;;;;4955074;28;20525;-50
2021/11/06 03:16:38;;;;;;;12.73;12.33;;;21.00;94.40;;;;;;4955232;28;20453;-50
2021/11/06 03:19:05;;;;;;;12.70;12.30;;;21.00;94.20;;;;;;4954447;28;20563;-48
2021/11/06 03:21:32;;;;;;;13.60;13.10;;;21.00;94.00;;;;;;4954609;29;20503;-50
2021/11/06 03:23:59;;;;;;;13.33;12.93;;;21.00;93.90;;;;;;4954900;28;20480;-49
2021/11/06 03:26:25;;;;;;;13.10;12.60;;;20.90;93.80;;;;;;4954906;28;20863;-51
2021/11/06 03:28:52;;;;;;;13.20;12.80;;;21.20;93.80;;;;;;4954462;28;20465;-51
2021/11/06 03:31:20;;;;;;;13.13;12.73;;;21.60;92.70;;;;;;4954589;28;20855;-52
2021/11/06 03:33:47;;;;;;;13.13;12.73;;;21.80;91.80;;;;;;4954630;29;20445;-51
2021/11/06 03:36:14;;;;;;;12.73;12.33;;;21.70;91.50;;;;;;4954719;29;20507;-49
2021/11/06 03:38:41;;;;;;;13.60;13.20;;;21.70;91.30;;;;;;4954184;28;20479;-48
2021/11/06 03:41:07;;;;;;;13.17;12.70;;;21.80;91.00;;;;;;4954573;28;20448;-49
2021/11/06 03:43:34;;;;;;;12.93;12.53;;;21.70;90.80;;;;;;4954597;28;20848;-47
2021/11/06 03:46:01;;;;;;;12.37;12.07;;;21.70;90.70;;;;;;4954368;28;20452;-50
2021/11/06 03:48:29;;;;;;;13.33;12.93;;;21.60;90.60;;;;;;4954374;28;20568;-49
2021/11/06 03:50:57;;;;;;;13.20;12.80;;;21.80;90.60;;;;;;4954091;28;20453;-47
2021/11/06 03:53:23;;;;;;;13.53;13.13;;;22.40;89.80;;;;;;4954325;29;20515;-50
2021/11/06 03:55:50;;;;;;;13.60;13.10;;;23.10;86.30;;;;;;4954375;28;20449;-51
2021/11/06 03:58:17;;;;;;;13.30;12.90;;;23.70;82.40;;;;;;4954228;28;20464;-48
2021/11/06 04:00:43;;;;;;;13.93;13.43;;;24.10;78.20;;;;;;4953225;28;20533;-56
2021/11/06 04:03:10;;;;;;;13.20;12.80;;;24.20;75.50;;;;;;4954194;28;20535;-51
2021/11/06 04:05:38;;;;;;;13.33;12.87;;;24.20;74.40;;;;;;4954304;28;20796;-48
2021/11/06 04:08:05;;;;;;;13.93;13.53;;;24.20;73.10;;;;;;4954024;28;21154;-52
2021/11/06 04:10:32;;;;;;;14.80;14.20;;;24.20;72.50;;;;;;4953672;28;20464;-50
2021/11/06 04:12:59;;;;;;;13.80;13.40;;;24.20;72.10;;;;;;4954074;29;20456;-50
2021/11/06 04:15:26;;;;;;;13.40;13.00;;;24.10;72.00;;;;;;4953949;29;20452;-54
2021/11/06 04:17:53;;;;;;;13.50;13.10;;;24.10;71.70;;;;;;4953823;28;21033;-50
2021/11/06 04:20:20;;;;;;;13.70;13.20;;;24.00;71.40;;;;;;4953550;29;20453;-47
2021/11/06 04:22:50;;;;;;;13.47;12.97;;;23.90;71.30;;;;;;4953887;28;20870;-50
2021/11/06 04:25:17;;;;;;;13.77;13.27;;;23.80;71.50;;;;;;4953970;28;20449;-52
2021/11/06 04:27:44;;;;;;;14.43;13.93;;;23.70;71.40;;;;;;4953523;28;20451;-51
2021/11/06 04:30:11;;;;;;;12.77;12.47;;;24.00;71.50;;;;;;4953443;29;20819;-50
2021/11/06 04:32:37;;;;;;;13.30;12.90;;;24.50;69.90;;;;;;4953786;29;20449;-48
2021/11/06 04:35:05;;;;;;;13.60;13.20;;;24.80;67.70;;;;;;4953625;29;20477;-53
2021/11/06 04:37:32;;;;;;;14.43;14.03;;;24.70;66.60;;;;;;4953399;29;20445;-48
2021/11/06 04:40:00;;;;;;;14.10;13.70;;;24.60;66.50;;;;;;4953487;28;20452;-53
2021/11/06 04:42:26;;;;;;;13.90;13.40;;;24.60;66.40;;;;;;4953708;28;20819;-52
2021/11/06 04:44:53;;;;;;;14.73;14.33;;;24.60;66.10;;;;;;4953546;28;20495;-52
2021/11/06 04:47:20;;;;;;;14.00;13.50;;;24.60;65.70;;;;;;4953350;28;20452;-49
2021/11/06 04:49:46;;;;;;;13.33;12.93;;;24.50;65.70;;;;;;4953228;28;20475;-51
2021/11/06 04:52:13;;;;;;;14.10;13.60;;;24.50;65.80;;;;;;4953486;29;20451;-52
2021/11/06 04:54:40;;;;;;;14.37;13.93;;;24.40;65.60;;;;;;4953560;29;20445;-49
2021/11/06 04:57:08;;;;;;;14.30;13.90;;;24.30;65.70;;;;;;4953133;29;20452;-47
2021/11/06 04:59:34;;;;;;;14.70;14.20;;;24.20;65.90;;;;;;4953246;28;20473;-49
2021/11/06 05:02:03;;;;;;;14.07;13.57;;;24.20;66.10;;;;;;4953498;28;20449;-49
2021/11/06 05:04:29;;;;;;;15.00;14.50;;;24.30;66.30;;;;;;4953283;28;20485;-48
2021/11/06 05:06:56;;;;;;;13.70;13.30;;;24.90;65.20;;;;;;4953399;28;20947;-49
2021/11/06 05:09:23;;;;;;;14.47;13.77;;;25.20;63.00;;;;;;4935238;28;20839;-52
2021/11/06 05:11:50;;;;;;;13.93;13.53;;;25.20;62.40;;;;;;4935666;29;20457;-49
2021/11/06 05:14:18;;;;;;;14.77;14.17;;;25.10;62.30;;;;;;4938066;29;20453;-47
2021/11/06 05:16:45;;;;;;;14.00;13.60;;;25.00;62.30;;;;;;4938143;29;20453;-51
2021/11/06 05:19:11;;;;;;;14.63;14.03;;;25.00;62.30;;;;;;4953068;28;20476;-51
2021/11/06 05:21:38;;;;;;;14.10;13.70;;;24.80;62.40;;;;;;4957133;28;20456;-49
2021/11/06 05:24:05;;;;;;;13.87;13.47;;;24.70;62.50;;;;;;4945690;28;20521;-54
2021/11/06 05:26:34;;;;;;;14.60;14.10;;;24.70;62.80;;;;;;4937912;29;20457;-48
2021/11/06 05:29:01;;;;;;;14.93;14.43;;;24.50;62.90;;;;;;4951588;28;20476;-48
2021/11/06 05:31:29;;;;;;;14.70;14.20;;;24.50;63.30;;;;;;4956805;28;20894;-51
2021/11/06 05:33:56;;;;;;;13.63;13.23;;;25.00;62.90;;;;;;4957152;28;20540;-55
2021/11/06 05:36:22;;;;;;;14.40;13.90;;;25.50;60.90;;;;;;4957007;28;20849;-52
2021/11/06 05:38:49;;;;;;;14.90;14.40;;;25.40;59.90;;;;;;4944026;28;20477;-54
2021/11/06 05:41:16;;;;;;;14.53;13.93;;;25.40;59.90;;;;;;4937633;29;20453;-54
2021/11/06 05:43:43;;;;;;;14.27;13.87;;;25.30;59.80;;;;;;4937578;29;20489;-51
2021/11/06 05:46:11;;;;;;;14.77;14.37;;;25.20;59.90;;;;;;4937566;29;20825;-53
2021/11/06 05:48:39;;;;;;;14.97;14.47;;;25.10;59.90;;;;;;4947704;28;20468;-53
2021/11/06 05:51:06;;;;;;;13.87;13.47;;;25.00;60.00;;;;;;4956706;28;20448;-50
2021/11/06 05:53:33;;;;;;;14.73;14.33;;;24.90;60.20;;;;;;4956576;28;20444;-48
2021/11/06 05:56:00;;;;;;;14.13;13.73;;;24.80;60.40;;;;;;4956539;28;20803;-50
2021/11/06 05:58:27;;;;;;;14.37;13.97;;;24.70;60.60;;;;;;4947193;28;20470;-48
2021/11/06 06:00:53;;;;;;;13.67;13.17;;;24.60;60.90;;;;;;4937195;29;20887;-53
2021/11/06 06:03:20;;;;;;;13.60;13.20;;;24.50;61.20;;;;;;4937243;29;20460;-49
2021/11/06 06:05:48;;;;;;;13.50;13.10;;;24.40;61.60;;;;;;4937240;29;20441;-50
2021/11/06 06:08:15;;;;;;;13.37;12.90;;;24.30;61.90;;;;;;4943890;28;20531;-51
2021/11/06 06:10:42;;;;;;;13.30;12.90;;;24.20;62.30;;;;;;4956073;28;20460;-49
2021/11/06 06:13:09;;;;;;;13.50;13.10;;;24.00;62.60;;;;;;4956154;28;20455;-51
2021/11/06 06:15:35;;;;;;;13.20;12.70;;;23.90;63.00;;;;;;4956383;28;20949;-50
2021/11/06 06:18:02;;;;;;;9.40;9.20;;;23.80;63.40;;;;;;4950791;28;21021;-48
2021/11/06 06:20:29;;;;;;;9.90;9.60;;;23.70;63.70;;;;;;4936771;29;20453;-52
2021/11/06 06:22:57;;;;;;;9.70;9.40;;;23.60;64.20;;;;;;4936866;29;20458;-48
2021/11/06 06:25:24;;;;;;;9.43;9.23;;;23.50;64.60;;;;;;4936805;29;20500;-49
2021/11/06 06:27:51;;;;;;;9.57;9.37;;;23.40;64.90;;;;;;4953274;28;20508;-48
2021/11/06 06:30:20;;;;;;;9.67;9.47;;;23.30;65.30;;;;;;4938252;28;20468;-49
2021/11/06 06:32:47;;;;;;;9.63;9.43;;;23.20;65.80;;;;;;4936686;29;20449;-48
2021/11/06 06:35:15;;;;;;;9.77;9.57;;;23.10;66.20;;;;;;4936650;29;20453;-50
2021/11/06 06:37:43;;;;;;;9.80;9.53;;;23.00;66.60;;;;;;4951670;28;20456;-47
2021/11/06 06:40:12;;;;;;;10.60;10.27;;;22.90;67.10;;;;;;4955502;28;20846;-53
2021/11/06 06:42:41;;;;;;;9.00;8.80;;;22.80;67.50;;;;;;4945722;28;20821;-51
2021/11/06 06:45:09;;;;;;;9.80;9.50;;;22.80;68.10;;;;;;4924787;29;20842;-52
2021/11/06 06:47:36;;;;;;;10.53;10.23;;;22.70;69.20;;;;;;4924550;29;20784;-52
2021/11/06 06:50:05;;;;;;;10.60;10.30;;;22.60;70.40;;;;;;4924086;29;20597;-52
2021/11/06 06:52:33;;;;;;;9.10;8.90;;;22.50;71.80;;;;;;4924560;29;20458;-52
2021/11/06 06:55:01;;;;;;;10.53;10.23;;;22.40;72.60;;;;;;4924530;29;20446;-53
2021/11/06 06:57:29;;;;;;;10.13;9.83;;;22.30;73.70;;;;;;4924443;29;20496;-51
2021/11/06 06:59:56;;;;;;;10.50;10.20;;;22.20;73.70;;;;;;4924537;29;20848;-55
2021/11/06 07:02:23;;;;;;;9.37;9.17;;;22.20;74.30;;;;;;4924251;29;20459;-52
2021/11/06 07:04:50;;;;;;;9.60;9.20;;;22.10;75.10;;;;;;4943080;29;20895;-50
2021/11/06 07:07:16;;;;;;;10.20;9.90;;;22.00;75.60;;;;;;4943621;28;20456;-51
2021/11/06 07:09:43;;;;;;;10.07;9.77;;;22.00;76.10;;;;;;4943107;28;20472;-49
2021/11/06 07:12:10;;;;;;;10.90;10.60;;;21.90;77.30;;;;;;4943343;28;20529;-51
2021/11/06 07:14:38;;;;;;;8.97;8.77;;;21.80;77.10;;;;;;4943020;28;20452;-51
2021/11/06 07:17:05;;;;;;;9.50;9.30;;;21.80;77.70;;;;;;4943235;29;20456;-51
2021/11/06 07:19:32;;;;;;;9.20;9.00;;;21.70;78.30;;;;;;4942968;28;20477;-51
2021/11/06 07:21:59;;;;;;;10.97;10.57;;;21.60;78.70;;;;;;4942972;29;20523;-52
2021/11/06 07:24:25;;;;;;;9.40;9.20;;;21.60;79.30;;;;;;4942822;29;20598;-52
2021/11/06 07:26:53;;;;;;;10.10;9.80;;;21.50;79.80;;;;;;4942959;28;20459;-51
2021/11/06 07:29:21;;;;;;;9.93;9.73;;;21.50;80.50;;;;;;4942573;28;20479;-51
2021/11/06 07:31:51;;;;;;;10.20;9.90;;;21.40;81.10;;;;;;4942410;28;20464;-52
2021/11/06 07:34:19;;;;;;;9.50;9.30;;;21.30;81.90;;;;;;4942252;28;20452;-51
2021/11/06 07:36:47;;;;;;;9.33;9.13;;;21.30;82.40;;;;;;4943026;29;20556;-51
2021/11/06 07:39:14;;;;;;;9.70;9.50;;;21.30;82.80;;;;;;4942757;28;20856;-50
2021/11/06 07:41:41;;;;;;;11.13;10.73;;;21.30;83.30;;;;;;4942717;28;20456;-49
2021/11/06 07:44:11;;;;;;;9.50;9.30;;;21.20;83.70;;;;;;4942585;29;20853;-50
2021/11/06 07:46:38;;;;;;;9.10;8.90;;;21.20;84.30;;;;;;4942764;29;20891;-49
2021/11/06 07:49:07;;;;;;;9.20;9.00;;;21.20;85.20;;;;;;4942347;28;20503;-53
2021/11/06 07:51:34;;;;;;;8.70;8.50;;;21.10;85.40;;;;;;4942588;28;20464;-54
2021/11/06 07:54:01;;;;;;;9.70;9.40;;;21.10;85.40;;;;;;4942834;28;20907;-53
2021/11/06 07:56:28;;;;;;;10.00;9.70;;;21.00;85.60;;;;;;4942511;28;20453;-54
2021/11/06 07:58:55;;;;;;;9.57;9.17;;;21.00;86.30;;;;;;4942189;28;20476;-55
2021/11/06 08:01:22;;;;;;;9.37;9.07;;;21.00;86.90;;;;;;4942063;28;20464;-52
2021/11/06 08:03:49;;;;;;;9.73;9.47;;;21.00;87.60;;;;;;4942347;29;20495;-52
2021/11/06 08:06:18;;;;;;;9.97;9.67;;;20.90;87.70;;;;;;4942328;28;20488;-51
2021/11/06 08:08:45;;;;;;;9.53;9.23;;;20.90;88.30;;;;;;4942366;28;20979;-52
2021/11/06 08:11:12;;;;;;;9.87;9.57;;;20.70;89.00;;;;;;4942222;28;20464;-55
2021/11/06 08:13:39;;;;;;;10.43;10.13;;;20.70;90.00;;;;;;4942302;28;20762;-50
2021/11/06 08:16:06;;;;;;;9.27;9.07;;;20.70;90.20;;;;;;4942086;29;20533;-52
2021/11/06 08:18:33;;;;;;;9.17;8.87;;;20.60;90.50;;;;;;4941989;28;20480;-56
2021/11/06 08:21:00;;;;;;;7.80;7.60;;;20.60;90.70;;;;;;4941157;29;20459;-52
2021/11/06 08:23:28;;;;;;;9.00;8.80;;;20.60;91.10;;;;;;4942088;28;20216;-52
2021/11/06 08:25:55;;;;;;;8.07;7.97;;;20.50;91.10;;;;;;4942132;28;20847;-56
2021/11/06 08:28:22;;;;;;;8.97;8.77;;;20.50;91.40;;;;;;4942881;28;20473;-57
2021/11/06 08:30:49;;;;;;;8.80;8.60;;;20.50;91.50;;;;;;4941888;28;20977;-50
2021/11/06 08:33:16;;;;;;;8.43;8.20;;;20.50;91.80;;;;;;4941708;29;20452;-51
2021/11/06 08:35:43;;;;;;;8.33;8.13;;;20.50;92.00;;;;;;4941889;28;20567;-52
2021/11/06 08:38:11;;;;;;;9.83;9.53;;;20.40;92.10;;;;;;4941951;28;20990;-50
2021/11/06 08:40:41;;;;;;;9.10;8.80;;;20.40;92.40;;;;;;4941512;28;20860;-50
2021/11/06 08:43:08;;;;;;;8.77;8.57;;;20.40;92.70;;;;;;4941994;29;20926;-52
2021/11/06 08:45:34;;;;;;;9.60;9.30;;;20.40;92.90;;;;;;4941296;28;20492;-48
2021/11/06 08:48:01;;;;;;;10.50;10.10;;;20.30;93.20;;;;;;4941437;28;20476;-52
2021/11/06 08:50:29;;;;;;;8.20;8.00;;;20.30;94.10;;;;;;4941476;29;20506;-52
2021/11/06 08:52:57;;;;;;;9.17;8.90;;;20.30;94.10;;;;;;4941982;28;20552;-51
2021/11/06 08:55:25;;;;;;;9.20;8.90;;;20.30;94.10;;;;;;4941636;28;20902;-55
2021/11/06 08:57:54;;;;;;;8.30;8.10;;;20.30;94.20;;;;;;4941739;28;20472;-50
2021/11/06 09:00:26;;;;;;;9.53;9.23;;;20.30;94.30;;;;;;4941641;28;20461;-54
2021/11/06 09:02:54;;;;;;;8.60;8.40;;;20.30;94.40;;;;;;4941670;29;20448;-53
2021/11/06 09:05:21;;;;;;;8.97;8.73;;;20.30;94.50;;;;;;4941494;29;20485;-49
2021/11/06 09:07:48;;;;;;;9.93;9.63;;;20.30;94.50;;;;;;4941581;28;20777;-50
2021/11/06 09:10:18;;;;;;;9.40;9.10;;;20.30;94.50;;;;;;4941465;29;20993;-53
2021/11/06 09:12:45;;;;;;;9.50;9.30;;;20.30;94.60;;;;;;4941735;28;20452;-50
2021/11/06 09:15:14;;;;;;;8.47;8.27;;;20.30;94.60;;;;;;4941773;28;20935;-53
2021/11/06 09:17:40;;;;;;;8.93;8.73;;;20.30;94.60;;;;;;4941364;28;20457;-49
2021/11/06 09:20:09;;;;;;;7.17;7.00;;;20.40;94.60;;;;;;4941394;28;21070;-49
2021/11/06 09:22:37;;;;;;;7.43;7.23;;;20.40;94.50;;;;;;4941447;28;20460;-51
2021/11/06 09:25:06;;;;;;;7.67;7.47;;;20.40;94.60;;;;;;4941153;29;20484;-52
2021/11/06 09:27:34;;;;;;;8.87;8.67;;;20.30;94.70;;;;;;4941722;28;21037;-49
2021/11/06 09:30:01;;;;;;;9.07;8.87;;;20.40;94.90;;;;;;4940914;29;20464;-56
2021/11/06 09:32:29;;;;;;;9.33;9.03;;;20.40;95.10;;;;;;4941701;28;20459;-52
2021/11/06 09:34:56;;;;;;;10.10;9.70;;;20.40;95.80;;;;;;4941513;28;20786;-53
2021/11/06 09:37:24;;;;;;;9.17;8.87;;;20.40;96.80;;;;;;4941092;28;20460;-51
2021/11/06 09:39:53;;;;;;;9.50;9.20;;;20.40;96.80;;;;;;4940978;28;20835;-52
2021/11/06 09:42:21;;;;;;;8.90;8.40;;;20.40;96.80;;;;;;4941202;29;20475;-50
2021/11/06 09:44:50;;;;;;;8.40;8.10;;;20.40;96.80;;;;;;4941220;29;20452;-53
2021/11/06 09:47:18;;;;;;;9.30;9.00;;;20.30;96.80;;;;;;4941136;29;20460;-51
2021/11/06 09:49:48;;;;;;;8.50;8.20;;;20.40;97.00;;;;;;4940858;28;20527;-51
2021/11/06 09:52:15;;;;;;;8.40;8.20;;;20.40;97.00;;;;;;4940996;29;20474;-54
2021/11/06 09:54:43;;;;;;;8.87;8.67;;;20.30;97.00;;;;;;4941292;28;20601;-53
2021/11/06 09:57:10;;;;;;;8.40;8.10;;;20.30;97.30;;;;;;4941545;28;20452;-50
2021/11/06 09:59:36;;;;;;;8.50;8.30;;;20.30;97.50;;;;;;4944211;28;20805;-53
2021/11/06 10:02:04;;;;;;;9.43;9.13;;;20.30;97.70;;;;;;4944613;28;20574;-53
2021/11/06 10:04:31;;;;;;;8.63;8.33;;;20.30;97.80;;;;;;4944453;28;20463;-54
2021/11/06 10:07:00;;;;;;;8.90;8.70;;;20.20;97.90;;;;;;4944602;28;20488;-51
2021/11/06 10:09:27;;;;;;;8.63;8.33;;;20.30;98.00;;;;;;4944160;28;20591;-53
2021/11/06 10:11:55;;;;;;;8.93;8.73;;;20.20;97.60;;;;;;4944486;29;20456;-53
2021/11/06 10:14:23;;;;;;;9.53;9.33;;;20.20;97.70;;;;;;4944221;29;20456;-53
2021/11/06 10:16:55;;;;;;;8.23;8.03;;;20.20;97.70;;;;;;4943963;29;20449;-52
2021/11/06 10:19:25;;;;;;;9.20;8.90;;;20.20;97.70;;;;;;4943986;28;20974;-50
2021/11/06 10:22:05;;;;;;;8.80;8.60;;;20.30;97.80;;;;;;4944174;29;20643;-52
2021/11/06 10:24:41;;;;;;;8.60;8.30;;;20.40;97.90;;;;;;4944494;28;20452;-50
2021/11/06 10:27:17;;;;;;;8.90;8.60;;;20.40;98.00;;;;;;4944134;28;20484;-50
2021/11/06 10:29:59;;;;;;;8.30;8.00;;;20.50;98.00;;;;;;4943882;28;20806;-54
2021/11/06 10:32:26;;;;;;;8.90;8.70;;;20.60;98.00;;;;;;4944321;29;20445;-51
2021/11/06 10:34:54;;;;;;;9.67;9.37;;;20.60;97.70;;;;;;4943989;29;20460;-51
2021/11/06 10:37:25;;;;;;;9.30;9.00;;;20.70;97.70;;;;;;4944020;29;20566;-51
2021/11/06 10:39:59;;;;;;;9.33;9.07;;;20.80;97.60;;;;;;4943483;28;20575;-51
2021/11/06 10:42:28;;;;;;;9.67;9.03;;;20.80;97.40;;;;;;4944256;28;21053;-53
2021/11/06 10:45:09;;;;;;;8.73;8.53;;;21.00;97.20;;;;;;4944051;28;20468;-54
2021/11/06 10:47:55;;;;;;;10.37;10.07;;;21.10;97.10;;;;;;4944030;28;20456;-52
2021/11/06 10:50:46;;;;;;;10.03;9.73;;;21.10;96.90;;;;;;4943858;28;20475;-58
2021/11/06 10:53:15;;;;;;;9.53;9.33;;;21.10;96.80;;;;;;4943763;29;20464;-56
2021/11/06 10:55:46;;;;;;;10.27;9.77;;;21.30;96.20;;;;;;4943538;29;20453;-54
2021/11/06 10:58:22;;;;;;;9.73;9.43;;;21.60;97.20;;;;;;4944035;28;20929;-55
2021/11/06 11:00:51;;;;;;;10.20;9.80;;;21.90;97.50;;;;;;4943532;28;20895;-52
2021/11/06 11:03:26;;;;;;;9.57;9.17;;;22.10;96.40;;;;;;4943895;28;20444;-53
2021/11/06 11:05:54;;;;;;;9.87;9.47;;;22.40;95.40;;;;;;4943417;28;20495;-53
2021/11/06 11:08:21;;;;;;;8.47;8.27;;;22.70;94.70;;;;;;4943125;28;20472;-55
2021/11/06 11:10:49;;;;;;;9.90;9.50;;;23.20;93.90;;;;;;4942825;29;21119;-52
2021/11/06 11:13:18;;;;;;;10.33;10.03;;;24.10;92.00;;;;;;4943694;28;20460;-54
2021/11/06 11:15:48;;;;;;;10.80;10.37;;;24.90;88.80;;;;;;4943571;28;20769;-52
2021/11/06 11:18:32;;;;;;;10.60;10.30;;;25.40;84.10;;;;;;4943498;28;20484;-52
2021/11/06 11:21:14;;;;;;;10.23;9.80;;;25.60;80.70;;;;;;4942946;28;20963;-54
2021/11/06 11:23:42;;;;;;;10.40;10.10;;;25.60;78.30;;;;;;4943591;29;20456;-54
2021/11/06 11:26:10;;;;;;;11.30;10.73;;;24.80;79.90;;;;;;4943099;28;20810;-52
2021/11/06 11:28:38;;;;;;;11.33;10.83;;;24.30;82.60;;;;;;4943049;28;20469;-51
2021/11/06 11:31:06;;;;;;;10.53;10.30;;;24.30;84.50;;;;;;4943324;28;20469;-51
2021/11/06 11:33:36;;;;;;;10.63;10.33;;;25.00;82.50;;;;;;4943097;28;20461;-49
2021/11/06 11:36:04;;;;;;;11.53;11.13;;;25.70;79.20;;;;;;4943348;28;20488;-52
2021/11/06 11:38:31;;;;;;;10.20;9.90;;;26.10;75.10;;;;;;4942819;28;20517;-52
2021/11/06 11:41:24;;;;;;;11.10;10.80;;;25.40;74.10;;;;;;4942898;28;20459;-50
2021/11/06 11:44:07;;;;;;;11.40;11.00;;;24.50;78.10;;;;;;4942718;28;20961;-53
2021/11/06 11:46:49;;;;;;;10.57;10.20;;;23.90;82.20;;;;;;4942666;29;20495;-54
2021/11/06 11:49:16;;;;;;;10.37;10.07;;;23.50;85.60;;;;;;4942420;28;20484;-51
2021/11/06 11:51:43;;;;;;;10.30;9.90;;;23.20;88.00;;;;;;4942493;29;20464;-51
2021/11/06 11:54:12;;;;;;;10.23;9.93;;;23.10;89.40;;;;;;4942492;29;20460;-50
2021/11/06 11:56:41;;;;;;;10.60;10.30;;;22.90;90.30;;;;;;4942503;29;20468;-51
2021/11/06 11:59:07;;;;;;;10.63;10.23;;;22.90;90.70;;;;;;4942124;28;20483;-52
2021/11/06 12:01:35;;;;;;;10.17;9.87;;;22.90;91.10;;;;;;4942277;28;20452;-54
2021/11/06 12:04:17;;;;;;;10.70;10.40;;;23.00;91.40;;;;;;4942501;28;20453;-53
2021/11/06 12:06:45;;;;;;;10.00;9.70;;;23.30;90.70;;;;;;4942388;28;20485;-52
2021/11/06 12:09:24;;;;;;;9.93;9.63;;;23.10;90.70;;;;;;4941767;28;20480;-52
2021/11/06 12:11:54;;;;;;;9.80;9.60;;;23.10;91.00;;;;;;4942252;29;20456;-53
2021/11/06 12:14:23;;;;;;;10.80;10.50;;;23.40;90.80;;;;;;4942017;29;20461;-58
2021/11/06 12:16:56;;;;;;;10.10;9.80;;;23.70;91.10;;;;;;4942258;29;20449;-53
2021/11/06 12:19:40;;;;;;;9.50;9.30;;;24.60;89.00;;;;;;4941369;28;20531;-53
2021/11/06 12:22:13;;;;;;;10.77;10.37;;;24.90;85.50;;;;;;4942191;28;20464;-51
2021/11/06 12:24:41;;;;;;;11.37;10.97;;;25.40;83.80;;;;;;4942091;28;20453;-51
2021/11/06 12:27:11;;;;;;;9.60;9.30;;;26.10;81.20;;;;;;4941878;28;20840;-51
2021/11/06 12:29:41;;;;;;;10.87;10.23;;;26.40;78.20;;;;;;4941222;28;21054;-52
2021/11/06 12:32:15;;;;;;;11.57;11.10;;;26.50;75.90;;;;;;4941984;29;20954;-55
2021/11/06 12:34:46;;;;;;;10.03;9.73;;;26.50;75.00;;;;;;4941832;29;20920;-55
2021/11/06 12:37:34;;;;;;;10.17;9.87;;;26.50;74.50;;;;;;4941984;29;20488;-55
2021/11/06 12:40:03;;;;;;;9.80;9.60;;;26.10;74.70;;;;;;4941540;29;20536;-54